Weather reports worldwide

Advertisment
Zugspitze, Germany (10961): temperature & dewpoint: 20.03.2019 08:00:00 - 26.03.2019 08:00:00 (CET)Zugspitze, Germany (10961): wind speed & gusts: 20.03.2019 08:00:00 - 26.03.2019 08:00:00 (CET)Zugspitze, Germany (10961): wind direction: 20.03.2019 08:00:00 - 26.03.2019 08:00:00 (CET)Zugspitze, Germany (10961): visibility: 20.03.2019 08:00:00 - 26.03.2019 08:00:00 (CET)Zugspitze, Germany (10961): sunshine duration: 20.03.2019 08:00:00 - 26.03.2019 08:00:00 (CET)
Date & Time tt [°C] td [°C] ff [km/h] ff [kn] fx [km/h] fx [kn] dd vv [km] sd [min]
26.03.2019 08:00:00 -16,8 -20,1 18 10 38 20 N - 45
26.03.2019 07:00:00 -15,9 -17,6 5 3 16 9 NE - 0
26.03.2019 06:00:00 -15,6 -16,5 5 3 18 10 N - 0
26.03.2019 05:00:00 -15,9 -17,0 12 6 27 15 N - 0
26.03.2019 04:00:00 -16,0 -17,4 7 4 30 16 NNW - 0
26.03.2019 03:00:00 -15,7 -17,2 9 5 34 18 N - 0
26.03.2019 02:00:00 -15,9 -17,4 9 5 24 13 N - 0
26.03.2019 01:00:00 -16,0 -17,6 9 5 24 13 NNW - 0
26.03.2019 00:00:00 -15,5 -17,3 11 6 24 13 NNW - 0
25.03.2019 23:00:00 -15,2 -17,0 16 8 33 18 NNW - 0
25.03.2019 22:00:00 -15,0 -15,0 18 10 32 18 NNW - 0
25.03.2019 21:00:00 -14,6 -14,6 16 9 31 17 NNW - 0
25.03.2019 20:00:00 -14,4 -14,4 11 6 34 18 N - 0
25.03.2019 19:00:00 -14,1 -14,1 21 12 37 20 NW - 0
25.03.2019 18:00:00 -13,4 -13,4 23 12 48 26 NNW - 0
25.03.2019 17:00:00 -13,1 -13,1 16 9 51 27 N - 0
25.03.2019 16:00:00 -12,5 -12,5 16 9 42 23 N 1,1 0
25.03.2019 15:00:00 -11,9 -12,1 13 7 44 24 NNW 0,2 0
25.03.2019 14:00:00 -11,1 -12,2 24 13 41 22 NNW 0,1 0
25.03.2019 13:00:00 -10,6 -12,2 14 8 35 19 NNW 0,1 0
25.03.2019 12:00:00 -9,4 -10,8 29 15 59 32 NW 0,1 0
25.03.2019 11:00:00 -9,0 -10,4 28 15 56 30 WNW 0,1 0
25.03.2019 10:00:00 -9,1 -10,5 30 16 55 30 NW - 0
25.03.2019 09:00:00 -8,9 -10,1 29 16 52 28 NW - 0
25.03.2019 08:00:00 -8,4 -9,6 25 13 47 26 NW - 0
25.03.2019 07:00:00 -8,2 -9,3 33 18 49 27 NW - 0
25.03.2019 06:00:00 -7,9 -8,9 29 16 58 31 NW - 0
25.03.2019 05:00:00 -7,5 -8,6 27 15 55 30 WNW - 0
25.03.2019 04:00:00 -7,6 -8,7 29 16 54 29 NW - 0
25.03.2019 03:00:00 -7,0 -8,2 28 15 52 28 NW - 0
25.03.2019 02:00:00 -6,9 -8,0 24 13 60 32 WNW - 0
25.03.2019 01:00:00 -6,8 -7,9 39 21 66 36 WSW 1,4 0
25.03.2019 00:00:00 -6,8 -7,8 30 16 56 30 WSW 7 0
24.03.2019 23:00:00 -7,1 -8,2 29 15 42 23 W 0,3 0
24.03.2019 22:00:00 -7,4 -8,5 20 11 41 22 W 18 0
24.03.2019 21:00:00 -6,7 -8,1 23 12 38 21 NW 2,9 0
24.03.2019 20:00:00 -5,9 -7,1 21 11 51 28 NNW 0,1 0
24.03.2019 19:00:00 -5,5 -7,3 23 12 48 26 WNW 16 40
24.03.2019 18:00:00 -4,1 -7,4 19 10 46 25 WNW 28 60
24.03.2019 17:00:00 -3,2 -6,5 13 7 37 20 WNW 26 58
24.03.2019 16:00:00 -2,5 -8,2 25 14 45 24 W 47 60
24.03.2019 15:00:00 -1,6 -8,6 18 10 42 23 WSW 52 60
24.03.2019 14:00:00 -1,9 -8,6 23 13 43 23 WSW 51 60
24.03.2019 13:00:00 -1,5 -12,4 29 15 42 23 WSW 57 60
24.03.2019 12:00:00 -1,6 -14,2 30 16 47 26 WSW 75 60
24.03.2019 11:00:00 -1,8 -14,7 36 19 56 30 WSW 73 60
24.03.2019 10:00:00 -1,6 -15,6 41 22 52 28 WSW 75 60
24.03.2019 09:00:00 -1,4 -14,7 33 18 43 23 WSW 75 60
24.03.2019 08:00:00 -1,5 -14,2 29 16 53 28 WSW 71 60
24.03.2019 07:00:00 -1,7 -14,5 31 17 41 22 WSW 75 40
24.03.2019 06:00:00 -1,7 -14,9 29 16 43 23 WSW 75 0
24.03.2019 05:00:00 -1,7 -14,5 24 13 41 22 WSW 75 0
24.03.2019 04:00:00 -1,8 -13,6 24 13 39 21 WSW 75 0
24.03.2019 03:00:00 -1,6 -13,4 27 14 35 19 SW 75 0
24.03.2019 02:00:00 -1,4 -12,7 20 11 27 14 SW 75 0
24.03.2019 01:00:00 -1,4 -15,2 12 6 14 7 S 75 0
24.03.2019 00:00:00 -1,3 -15,3 10 6 14 8 SSE 75 0
23.03.2019 23:00:00 -0,5 -16,7 9 5 10 6 SSE 75 0
23.03.2019 22:00:00 -1,3 -16,7 6 4 9 5 SE 75 0
23.03.2019 21:00:00 0,4 -16,1 3 2 6 4 ESE 75 0
23.03.2019 20:00:00 -0,1 -16,2 5 3 6 3 E 75 0
23.03.2019 19:00:00 0,8 -18,9 3 1 8 5 S 75 45
23.03.2019 18:00:00 2,9 -22,4 9 5 10 5 SSE 75 60
23.03.2019 17:00:00 2,4 -21,9 9 5 11 6 SE 75 60
23.03.2019 16:00:00 1,7 -23,8 9 5 13 7 SE 71 60
23.03.2019 15:00:00 1,5 -22,1 10 6 17 9 SE 69 60
23.03.2019 14:00:00 1,3 -20,2 14 8 21 12 ESE 73 60
23.03.2019 13:00:00 1,2 -18,8 16 9 24 13 ESE 75 60
23.03.2019 12:00:00 1,8 -17,0 14 8 18 10 E 73 60
23.03.2019 11:00:00 0,9 -15,8 6 4 15 8 NE 75 60
23.03.2019 10:00:00 0,3 -16,1 9 5 16 8 NE 75 60
23.03.2019 09:00:00 1,0 -15,8 11 6 15 8 E 75 60
23.03.2019 08:00:00 0,2 -18,8 9 5 15 8 NE 75 60
23.03.2019 07:00:00 0,0 -19,5 11 6 12 7 NNE 75 38
23.03.2019 06:00:00 -0,6 -20,4 8 5 11 6 N 75 0
23.03.2019 05:00:00 -0,7 -18,0 8 5 10 5 N 75 0
23.03.2019 04:00:00 -0,5 -17,2 5 3 9 5 N 75 0
23.03.2019 03:00:00 -0,1 -16,6 2 1 3 2 N 75 0
23.03.2019 02:00:00 0,1 -16,4 0 0 5 3 N 75 0
23.03.2019 01:00:00 0,0 -16,7 2 1 4 2 ENE 75 0
23.03.2019 00:00:00 0,0 -16,7 2 1 4 2 N 75 0
22.03.2019 23:00:00 0,2 -16,4 3 2 5 3 N 75 0
22.03.2019 22:00:00 0,4 -16,5 3 2 9 5 S 75 0
22.03.2019 21:00:00 0,2 -17,3 5 3 8 4 SE 75 0
22.03.2019 20:00:00 0,4 -16,9 3 2 6 3 SSE 75 0
22.03.2019 19:00:00 0,7 -16,3 4 2 10 5 S 75 28
22.03.2019 18:00:00 1,7 -16,3 6 4 11 6 S 75 59
22.03.2019 17:00:00 3,2 -15,0 6 3 16 9 SSE 75 60
22.03.2019 16:00:00 1,3 -17,2 13 7 19 11 ESE 75 60
22.03.2019 15:00:00 1,0 -18,4 16 9 24 13 ESE 75 60
22.03.2019 14:00:00 0,9 -19,0 17 9 29 16 ESE 53 60
22.03.2019 13:00:00 0,2 -19,6 24 13 32 17 ESE 73 60
22.03.2019 12:00:00 0,5 -19,4 25 13 32 18 ESE 70 60
22.03.2019 11:00:00 0,3 -20,2 26 14 34 18 ESE 74 60
22.03.2019 10:00:00 0,1 -20,7 26 14 32 17 ESE 75 60
22.03.2019 09:00:00 0,3 -20,7 23 13 31 17 ESE 75 60
22.03.2019 08:00:00 0,6 -20,9 21 11 28 15 ESE 75 60
22.03.2019 07:00:00 0,0 -22,2 22 12 31 17 ESE 75 35
22.03.2019 06:00:00 -1,1 -21,6 29 16 35 19 ESE 75 0
22.03.2019 05:00:00 -0,8 -22,1 28 15 30 16 ESE 75 0
22.03.2019 04:00:00 -1,2 -21,7 26 14 29 16 ESE 75 0
22.03.2019 03:00:00 -0,7 -21,8 26 14 32 18 ESE 75 0
22.03.2019 02:00:00 -1,3 -22,7 23 12 33 18 ESE 75 0
22.03.2019 01:00:00 -1,0 -23,1 29 16 38 21 ESE 75 0
22.03.2019 00:00:00 -0,9 -22,1 25 13 32 17 E 75 0
21.03.2019 23:00:00 -1,5 -25,6 27 15 31 17 ESE 75 0
21.03.2019 22:00:00 -1,4 -27,4 24 13 29 16 ESE 75 0
21.03.2019 21:00:00 -1,5 -27,1 20 11 26 14 ESE 75 0
21.03.2019 20:00:00 -1,4 -26,6 21 12 25 14 ESE 75 0
21.03.2019 19:00:00 -1,3 -27,4 24 13 27 15 ESE 75 44
21.03.2019 18:00:00 -0,7 -26,5 20 11 26 14 ESE 75 60
21.03.2019 17:00:00 -0,4 -27,3 23 13 27 15 ESE 75 60
21.03.2019 16:00:00 -0,6 -27,1 21 12 27 14 ESE 75 60
21.03.2019 15:00:00 -1,2 -27,1 25 13 29 16 ESE 75 60
21.03.2019 14:00:00 -0,8 -26,0 29 16 36 19 ESE 75 60
21.03.2019 13:00:00 -0,9 -25,3 29 16 37 20 ESE 62 60
21.03.2019 12:00:00 -0,9 -27,2 29 15 49 27 ESE 53 60
21.03.2019 11:00:00 -1,8 -26,6 31 17 48 26 ESE 75 60
21.03.2019 10:00:00 -2,1 -27,2 30 16 39 21 ESE 75 60
21.03.2019 09:00:00 -2,0 -28,3 26 14 40 22 ESE 75 60
21.03.2019 08:00:00 -2,5 -27,6 31 17 38 20 ESE 75 60
21.03.2019 07:00:00 -3,1 -28,4 30 16 45 25 ESE 75 34
21.03.2019 06:00:00 -4,4 -30,1 36 20 48 26 E 70 0
21.03.2019 05:00:00 -4,5 -29,8 31 17 50 27 ESE 75 0
21.03.2019 04:00:00 -5,4 -28,3 35 19 51 28 ESE 19 0
21.03.2019 03:00:00 -4,9 -29,7 30 16 49 27 ESE 2,0 0
21.03.2019 02:00:00 -5,1 -29,2 24 13 45 24 ESE 7 0
21.03.2019 01:00:00 -6,0 -28,2 19 10 48 26 E 4,8 0
21.03.2019 00:00:00 -7,0 -27,8 28 15 46 25 E 54 0
20.03.2019 23:00:00 -8,0 -26,8 36 19 46 25 E 40 0
20.03.2019 22:00:00 -7,6 -26,1 38 21 46 25 E 6 0
20.03.2019 21:00:00 -8,9 -28,1 18 10 40 21 ENE 9 0
20.03.2019 20:00:00 -8,7 -28,3 16 9 30 16 NE 75 0
20.03.2019 19:00:00 -8,6 -31,6 16 8 28 15 N 75 42
20.03.2019 18:00:00 -8,3 -30,8 16 9 34 19 N 75 60
20.03.2019 17:00:00 -9,3 -33,1 13 7 27 14 N 75 60
20.03.2019 16:00:00 -9,4 -32,4 15 8 26 14 N 75 60
20.03.2019 15:00:00 -9,2 -33,1 13 7 24 13 N 75 60
20.03.2019 14:00:00 -9,0 -32,3 10 6 31 17 NE 75 60
20.03.2019 13:00:00 -9,3 -25,7 18 10 31 17 E 64 60
20.03.2019 12:00:00 -10,5 -31,2 16 9 33 18 N 47 59
20.03.2019 11:00:00 -11,6 -29,5 16 9 32 17 N 63 60
20.03.2019 10:00:00 -11,6 -29,7 22 12 31 17 NNW 69 60
20.03.2019 09:00:00 -12,9 -27,5 17 9 28 15 N 75 60
20.03.2019 08:00:00 -12,7 -27,5 19 10 27 15 N 70 60

tt = temperature
td = dewpoint
ff = wind speed
fx = gusts
dd = wind direction
vv = visibility
sd = sunshine duration

Next stations